sensor_id;sensor_type;location;lat;lon;timestamp;pressure;altitude;pressure_sealevel;temperature;humidity
26978;BME280;56314;48.088;11.642;2023-04-08T00:01:35;95492.78;;;5.29;86.42
26978;BME280;56314;48.088;11.642;2023-04-08T00:04:00;95493.97;;;5.23;87.70
26978;BME280;56314;48.088;11.642;2023-04-08T00:06:26;95481.34;;;5.15;88.30
26978;BME280;56314;48.088;11.642;2023-04-08T00:08:51;95490.69;;;5.19;88.41
26978;BME280;56314;48.088;11.642;2023-04-08T00:11:16;95488.25;;;5.16;88.95
26978;BME280;56314;48.088;11.642;2023-04-08T00:13:42;95490.09;;;5.14;89.58
26978;BME280;56314;48.088;11.642;2023-04-08T00:16:07;95490.19;;;5.13;90.07
26978;BME280;56314;48.088;11.642;2023-04-08T00:18:32;95493.44;;;5.16;90.60
26978;BME280;56314;48.088;11.642;2023-04-08T00:20:58;95499.56;;;5.15;90.30
26978;BME280;56314;48.088;11.642;2023-04-08T00:23:24;95490.03;;;5.16;89.91
26978;BME280;56314;48.088;11.642;2023-04-08T00:25:51;95500.50;;;5.14;90.59
26978;BME280;56314;48.088;11.642;2023-04-08T00:28:22;95500.34;;;5.17;90.19
26978;BME280;56314;48.088;11.642;2023-04-08T00:30:48;95502.78;;;5.20;89.50
26978;BME280;56314;48.088;11.642;2023-04-08T00:33:16;95496.22;;;5.13;89.73
26978;BME280;56314;48.088;11.642;2023-04-08T00:35:41;95494.47;;;5.14;90.37
26978;BME280;56314;48.088;11.642;2023-04-08T00:38:09;95506.03;;;5.08;89.68
26978;BME280;56314;48.088;11.642;2023-04-08T00:40:38;95509.47;;;5.08;89.03
26978;BME280;56314;48.088;11.642;2023-04-08T00:43:08;95500.06;;;5.06;88.85
26978;BME280;56314;48.088;11.642;2023-04-08T00:45:37;95506.69;;;4.96;89.43
26978;BME280;56314;48.088;11.642;2023-04-08T00:48:05;95505.84;;;4.95;90.16
26978;BME280;56314;48.088;11.642;2023-04-08T00:50:30;95512.06;;;4.92;90.16
26978;BME280;56314;48.088;11.642;2023-04-08T00:52:58;95507.19;;;4.86;90.71
26978;BME280;56314;48.088;11.642;2023-04-08T00:55:23;95510.72;;;4.85;91.12
26978;BME280;56314;48.088;11.642;2023-04-08T00:57:52;95508.03;;;4.87;90.78
26978;BME280;56314;48.088;11.642;2023-04-08T01:00:23;95509.78;;;4.86;91.00
26978;BME280;56314;48.088;11.642;2023-04-08T01:03:15;95509.94;;;4.83;90.55
26978;BME280;56314;48.088;11.642;2023-04-08T01:08:31;95504.81;;;4.82;90.84
26978;BME280;56314;48.088;11.642;2023-04-08T01:11:00;95505.81;;;4.79;91.28
26978;BME280;56314;48.088;11.642;2023-04-08T01:13:29;95511.16;;;4.76;91.31
26978;BME280;56314;48.088;11.642;2023-04-08T01:15:55;95504.22;;;4.76;91.44
26978;BME280;56314;48.088;11.642;2023-04-08T01:18:25;95509.53;;;4.75;91.15
26978;BME280;56314;48.088;11.642;2023-04-08T01:20:51;95506.31;;;4.70;91.36
26978;BME280;56314;48.088;11.642;2023-04-08T01:26:25;95511.81;;;4.63;91.97
26978;BME280;56314;48.088;11.642;2023-04-08T01:28:53;95504.88;;;4.64;92.26
26978;BME280;56314;48.088;11.642;2023-04-08T01:31:23;95507.56;;;4.62;91.76
26978;BME280;56314;48.088;11.642;2023-04-08T01:33:50;95503.34;;;4.60;92.04
26978;BME280;56314;48.088;11.642;2023-04-08T01:36:16;95506.78;;;4.60;92.09
26978;BME280;56314;48.088;11.642;2023-04-08T01:38:43;95504.25;;;4.59;92.00
26978;BME280;56314;48.088;11.642;2023-04-08T01:41:10;95496.53;;;4.57;92.72
26978;BME280;56314;48.088;11.642;2023-04-08T01:43:38;95503.66;;;4.54;93.00
26978;BME280;56314;48.088;11.642;2023-04-08T01:46:05;95508.09;;;4.52;92.41
26978;BME280;56314;48.088;11.642;2023-04-08T01:48:32;95506.41;;;4.51;93.07
26978;BME280;56314;48.088;11.642;2023-04-08T01:50:58;95509.09;;;4.49;92.89
26978;BME280;56314;48.088;11.642;2023-04-08T01:53:24;95509.25;;;4.46;93.74
26978;BME280;56314;48.088;11.642;2023-04-08T01:55:56;95508.56;;;4.42;93.42
26978;BME280;56314;48.088;11.642;2023-04-08T01:58:23;95506.75;;;4.44;93.34
26978;BME280;56314;48.088;11.642;2023-04-08T02:00:52;95508.41;;;4.45;93.56
26978;BME280;56314;48.088;11.642;2023-04-08T02:03:20;95504.97;;;4.45;93.83
26978;BME280;56314;48.088;11.642;2023-04-08T02:05:47;95505.97;;;4.42;93.77
26978;BME280;56314;48.088;11.642;2023-04-08T02:08:15;95505.28;;;4.39;93.64
26978;BME280;56314;48.088;11.642;2023-04-08T02:10:40;95510.50;;;4.39;93.93
26978;BME280;56314;48.088;11.642;2023-04-08T02:13:06;95507.03;;;4.38;94.03
26978;BME280;56314;48.088;11.642;2023-04-08T02:15:34;95517.53;;;4.37;93.80
26978;BME280;56314;48.088;11.642;2023-04-08T02:18:08;95516.38;;;4.42;93.96
26978;BME280;56314;48.088;11.642;2023-04-08T02:20:42;95515.75;;;4.37;93.50
26978;BME280;56314;48.088;11.642;2023-04-08T02:23:22;95518.59;;;4.32;93.90
26978;BME280;56314;48.088;11.642;2023-04-08T02:25:49;95517.91;;;4.29;94.01
26978;BME280;56314;48.088;11.642;2023-04-08T02:28:17;95514.97;;;4.35;93.57
26978;BME280;56314;48.088;11.642;2023-04-08T02:30:50;95512.16;;;4.40;93.70
26978;BME280;56314;48.088;11.642;2023-04-08T02:33:21;95511.63;;;4.33;93.45
26978;BME280;56314;48.088;11.642;2023-04-08T02:35:50;95510.78;;;4.32;94.03
26978;BME280;56314;48.088;11.642;2023-04-08T02:38:19;95510.88;;;4.31;93.43
26978;BME280;56314;48.088;11.642;2023-04-08T02:40:44;95517.81;;;4.30;93.84
26978;BME280;56314;48.088;11.642;2023-04-08T02:43:09;95508.66;;;4.23;93.50
26978;BME280;56314;48.088;11.642;2023-04-08T02:45:40;95505.28;;;4.21;94.17
26978;BME280;56314;48.088;11.642;2023-04-08T02:48:09;95513.25;;;4.18;94.30
26978;BME280;56314;48.088;11.642;2023-04-08T02:50:37;95511.84;;;4.28;93.96
26978;BME280;56314;48.088;11.642;2023-04-08T02:53:04;95508.50;;;4.26;94.48
26978;BME280;56314;48.088;11.642;2023-04-08T02:55:29;95507.06;;;4.21;94.46
26978;BME280;56314;48.088;11.642;2023-04-08T02:57:55;95508.50;;;4.26;94.07
26978;BME280;56314;48.088;11.642;2023-04-08T03:00:22;95506.06;;;4.23;95.08
26978;BME280;56314;48.088;11.642;2023-04-08T03:02:48;95508.72;;;4.22;95.10
26978;BME280;56314;48.088;11.642;2023-04-08T03:05:13;95509.56;;;4.22;95.47
26978;BME280;56314;48.088;11.642;2023-04-08T03:07:43;95511.03;;;4.28;95.59
26978;BME280;56314;48.088;11.642;2023-04-08T03:10:08;95516.31;;;4.26;95.60
26978;BME280;56314;48.088;11.642;2023-04-08T03:12:37;95514.22;;;4.33;95.52
26978;BME280;56314;48.088;11.642;2023-04-08T03:15:02;95513.09;;;4.39;95.39
26978;BME280;56314;48.088;11.642;2023-04-08T03:17:28;95516.44;;;4.41;95.28
26978;BME280;56314;48.088;11.642;2023-04-08T03:19:54;95515.59;;;4.40;95.29
26978;BME280;56314;48.088;11.642;2023-04-08T03:22:19;95513.53;;;4.47;95.09
26978;BME280;56314;48.088;11.642;2023-04-08T03:24:44;95515.47;;;4.43;95.35
26978;BME280;56314;48.088;11.642;2023-04-08T03:27:10;95515.81;;;4.53;94.76
26978;BME280;56314;48.088;11.642;2023-04-08T03:29:36;95511.53;;;4.52;94.65
26978;BME280;56314;48.088;11.642;2023-04-08T03:32:02;95516.44;;;4.58;94.45
26978;BME280;56314;48.088;11.642;2023-04-08T03:34:30;95516.72;;;4.52;94.36
26978;BME280;56314;48.088;11.642;2023-04-08T03:36:58;95520.19;;;4.53;94.60
26978;BME280;56314;48.088;11.642;2023-04-08T03:39:24;95517.59;;;4.53;95.43
26978;BME280;56314;48.088;11.642;2023-04-08T03:41:49;95521.63;;;4.58;95.20
26978;BME280;56314;48.088;11.642;2023-04-08T03:44:15;95519.03;;;4.58;95.02
26978;BME280;56314;48.088;11.642;2023-04-08T03:46:40;95521.47;;;4.61;94.78
26978;BME280;56314;48.088;11.642;2023-04-08T03:49:05;95524.22;;;4.58;95.56
26978;BME280;56314;48.088;11.642;2023-04-08T03:51:31;95531.78;;;4.63;95.30
26978;BME280;56314;48.088;11.642;2023-04-08T03:53:56;95527.50;;;4.62;95.71
26978;BME280;56314;48.088;11.642;2023-04-08T03:56:22;95526.50;;;4.65;94.90
26978;BME280;56314;48.088;11.642;2023-04-08T03:58:47;95528.94;;;4.68;94.94
26978;BME280;56314;48.088;11.642;2023-04-08T04:01:12;95530.78;;;4.66;95.11
26978;BME280;56314;48.088;11.642;2023-04-08T04:03:38;95532.22;;;4.71;95.45
26978;BME280;56314;48.088;11.642;2023-04-08T04:06:03;95546.00;;;4.73;94.90
26978;BME280;56314;48.088;11.642;2023-04-08T04:08:29;95541.66;;;4.74;94.68
26978;BME280;56314;48.088;11.642;2023-04-08T04:10:54;95542.63;;;4.71;95.15
26978;BME280;56314;48.088;11.642;2023-04-08T04:13:22;95543.25;;;4.76;94.12
26978;BME280;56314;48.088;11.642;2023-04-08T04:15:47;95546.53;;;4.80;94.55
26978;BME280;56314;48.088;11.642;2023-04-08T04:18:13;95544.59;;;4.84;94.49
26978;BME280;56314;48.088;11.642;2023-04-08T04:20:40;95543.78;;;4.83;94.67
26978;BME280;56314;48.088;11.642;2023-04-08T04:23:05;95552.25;;;4.87;94.52
26978;BME280;56314;48.088;11.642;2023-04-08T04:25:31;95556.69;;;4.85;94.76
26978;BME280;56314;48.088;11.642;2023-04-08T04:27:56;95546.28;;;4.85;94.62
26978;BME280;56314;48.088;11.642;2023-04-08T04:30:21;95556.69;;;4.85;94.62
26978;BME280;56314;48.088;11.642;2023-04-08T04:32:47;95554.03;;;4.86;94.73
26978;BME280;56314;48.088;11.642;2023-04-08T04:35:12;95556.97;;;4.96;94.46
26978;BME280;56314;48.088;11.642;2023-04-08T04:37:37;95558.81;;;4.94;94.48
26978;BME280;56314;48.088;11.642;2023-04-08T04:40:04;95557.84;;;4.97;95.19
26978;BME280;56314;48.088;11.642;2023-04-08T04:42:31;95560.94;;;5.03;94.02
26978;BME280;56314;48.088;11.642;2023-04-08T04:44:59;95560.19;;;5.01;94.30
26978;BME280;56314;48.088;11.642;2023-04-08T04:47:24;95568.75;;;5.03;93.98
26978;BME280;56314;48.088;11.642;2023-04-08T04:49:50;95564.13;;;5.08;93.66
26978;BME280;56314;48.088;11.642;2023-04-08T04:52:16;95565.91;;;5.08;93.76
26978;BME280;56314;48.088;11.642;2023-04-08T04:54:41;95575.22;;;5.12;93.73
26978;BME280;56314;48.088;11.642;2023-04-08T04:57:06;95567.09;;;5.18;93.68
26978;BME280;56314;48.088;11.642;2023-04-08T04:59:32;95566.34;;;5.16;93.92
26978;BME280;56314;48.088;11.642;2023-04-08T05:01:57;95571.31;;;5.21;94.36
26978;BME280;56314;48.088;11.642;2023-04-08T05:04:24;95576.50;;;5.21;94.22
26978;BME280;56314;48.088;11.642;2023-04-08T05:06:49;95571.06;;;5.26;93.83
26978;BME280;56314;48.088;11.642;2023-04-08T05:09:15;95569.63;;;5.20;93.56
26978;BME280;56314;48.088;11.642;2023-04-08T05:11:40;95566.94;;;5.21;93.67
26978;BME280;56314;48.088;11.642;2023-04-08T05:14:06;95578.97;;;5.24;93.87
26978;BME280;56314;48.088;11.642;2023-04-08T05:16:32;95580.53;;;5.27;94.15
26978;BME280;56314;48.088;11.642;2023-04-08T05:18:57;95579.84;;;5.41;94.08
26978;BME280;56314;48.088;11.642;2023-04-08T05:21:23;95568.31;;;5.45;93.18
26978;BME280;56314;48.088;11.642;2023-04-08T05:23:48;95568.81;;;5.51;92.96
26978;BME280;56314;48.088;11.642;2023-04-08T05:26:17;95567.78;;;5.54;92.42
26978;BME280;56314;48.088;11.642;2023-04-08T05:28:43;95564.13;;;5.58;92.40
26978;BME280;56314;48.088;11.642;2023-04-08T05:31:08;95572.03;;;5.57;92.77
26978;BME280;56314;48.088;11.642;2023-04-08T05:33:33;95571.16;;;5.56;92.64
26978;BME280;56314;48.088;11.642;2023-04-08T05:35:59;95571.25;;;5.54;92.45
26978;BME280;56314;48.088;11.642;2023-04-08T05:38:24;95577.22;;;5.57;93.13
26978;BME280;56314;48.088;11.642;2023-04-08T05:40:49;95576.81;;;5.64;92.78
26978;BME280;56314;48.088;11.642;2023-04-08T05:43:15;95578.06;;;5.73;92.88
26978;BME280;56314;48.088;11.642;2023-04-08T05:45:40;95573.84;;;5.70;92.65
26978;BME280;56314;48.088;11.642;2023-04-08T05:48:06;95569.31;;;5.74;92.90
26978;BME280;56314;48.088;11.642;2023-04-08T05:50:34;95575.53;;;5.72;92.79
26978;BME280;56314;48.088;11.642;2023-04-08T05:52:59;95574.63;;;5.73;92.11
26978;BME280;56314;48.088;11.642;2023-04-08T05:55:24;95581.34;;;5.77;92.12
26978;BME280;56314;48.088;11.642;2023-04-08T05:57:52;95575.78;;;5.83;92.19
26978;BME280;56314;48.088;11.642;2023-04-08T06:00:18;95576.56;;;5.85;92.54
26978;BME280;56314;48.088;11.642;2023-04-08T06:02:44;95573.44;;;5.94;91.88
26978;BME280;56314;48.088;11.642;2023-04-08T06:05:09;95574.34;;;5.93;91.81
26978;BME280;56314;48.088;11.642;2023-04-08T06:07:35;95580.16;;;5.98;91.26
26978;BME280;56314;48.088;11.642;2023-04-08T06:10:00;95582.28;;;6.08;91.11
26978;BME280;56314;48.088;11.642;2023-04-08T06:12:26;95581.50;;;6.06;91.47
26978;BME280;56314;48.088;11.642;2023-04-08T06:14:54;95585.81;;;6.07;91.36
26978;BME280;56314;48.088;11.642;2023-04-08T06:17:20;95583.84;;;6.10;91.02
26978;BME280;56314;48.088;11.642;2023-04-08T06:19:45;95583.97;;;6.09;90.75
26978;BME280;56314;48.088;11.642;2023-04-08T06:22:11;95588.31;;;6.08;91.10
26978;BME280;56314;48.088;11.642;2023-04-08T06:24:36;95583.84;;;6.10;90.73
26978;BME280;56314;48.088;11.642;2023-04-08T06:27:01;95586.22;;;6.15;90.50
26978;BME280;56314;48.088;11.642;2023-04-08T06:29:27;95586.03;;;6.18;90.92
26978;BME280;56314;48.088;11.642;2023-04-08T06:31:54;95584.84;;;6.24;90.81
26978;BME280;56314;48.088;11.642;2023-04-08T06:34:19;95594.75;;;6.33;90.97
26978;BME280;56314;48.088;11.642;2023-04-08T06:36:44;95589.84;;;6.43;89.63
26978;BME280;56314;48.088;11.642;2023-04-08T06:39:12;95590.72;;;6.43;89.35
26978;BME280;56314;48.088;11.642;2023-04-08T06:41:41;95592.28;;;6.46;89.13
26978;BME280;56314;48.088;11.642;2023-04-08T06:44:06;95604.22;;;6.50;89.67
26978;BME280;56314;48.088;11.642;2023-04-08T06:46:31;95591.75;;;6.55;89.05
26978;BME280;56314;48.088;11.642;2023-04-08T06:48:57;95596.25;;;6.68;89.03
26978;BME280;56314;48.088;11.642;2023-04-08T06:51:22;95592.63;;;6.70;87.98
26978;BME280;56314;48.088;11.642;2023-04-08T06:53:47;95598.59;;;6.72;87.85
26978;BME280;56314;48.088;11.642;2023-04-08T06:56:13;95603.72;;;6.74;87.93
26978;BME280;56314;48.088;11.642;2023-04-08T06:58:38;95608.88;;;6.75;86.59
26978;BME280;56314;48.088;11.642;2023-04-08T07:01:03;95604.47;;;6.76;86.06
26978;BME280;56314;48.088;11.642;2023-04-08T07:03:29;95603.53;;;6.77;86.03
26978;BME280;56314;48.088;11.642;2023-04-08T07:05:54;95601.88;;;6.76;86.52
26978;BME280;56314;48.088;11.642;2023-04-08T07:08:20;95606.91;;;6.79;86.76
26978;BME280;56314;48.088;11.642;2023-04-08T07:10:46;95604.94;;;6.83;86.95
26978;BME280;56314;48.088;11.642;2023-04-08T07:13:11;95609.91;;;6.87;86.26
26978;BME280;56314;48.088;11.642;2023-04-08T07:15:37;95608.03;;;6.89;85.26
26978;BME280;56314;48.088;11.642;2023-04-08T07:18:02;95615.88;;;6.89;84.72
26978;BME280;56314;48.088;11.642;2023-04-08T07:20:28;95612.63;;;6.86;84.70
26978;BME280;56314;48.088;11.642;2023-04-08T07:22:54;95615.13;;;6.87;83.10
26978;BME280;56314;48.088;11.642;2023-04-08T07:25:19;95613.22;;;6.75;84.42
26978;BME280;56314;48.088;11.642;2023-04-08T07:27:47;95616.72;;;6.90;84.78
26978;BME280;56314;48.088;11.642;2023-04-08T07:30:12;95623.91;;;7.01;82.87
26978;BME280;56314;48.088;11.642;2023-04-08T07:32:38;95614.41;;;7.14;81.50
26978;BME280;56314;48.088;11.642;2023-04-08T07:35:03;95627.47;;;7.14;79.95
26978;BME280;56314;48.088;11.642;2023-04-08T07:37:29;95626.28;;;7.20;80.19
26978;BME280;56314;48.088;11.642;2023-04-08T07:39:54;95621.16;;;7.18;80.45
26978;BME280;56314;48.088;11.642;2023-04-08T07:42:20;95623.00;;;7.16;81.18
26978;BME280;56314;48.088;11.642;2023-04-08T07:44:46;95624.69;;;7.17;81.49
26978;BME280;56314;48.088;11.642;2023-04-08T07:47:11;95629.44;;;7.11;81.94
26978;BME280;56314;48.088;11.642;2023-04-08T07:49:37;95628.31;;;7.00;82.16
26978;BME280;56314;48.088;11.642;2023-04-08T07:52:03;95633.06;;;6.93;80.69
26978;BME280;56314;48.088;11.642;2023-04-08T07:54:30;95638.00;;;6.98;79.43
26978;BME280;56314;48.088;11.642;2023-04-08T07:56:55;95636.16;;;7.00;78.35
26978;BME280;56314;48.088;11.642;2023-04-08T07:59:21;95635.84;;;6.90;75.92
26978;BME280;56314;48.088;11.642;2023-04-08T08:01:46;95641.72;;;6.94;75.22
26978;BME280;56314;48.088;11.642;2023-04-08T08:04:12;95645.63;;;6.87;72.22
26978;BME280;56314;48.088;11.642;2023-04-08T08:06:37;95642.16;;;6.86;72.79
26978;BME280;56314;48.088;11.642;2023-04-08T08:09:03;95645.88;;;6.82;73.14
26978;BME280;56314;48.088;11.642;2023-04-08T08:11:29;95644.81;;;6.70;74.97
26978;BME280;56314;48.088;11.642;2023-04-08T08:13:54;95639.66;;;6.85;74.44
26978;BME280;56314;48.088;11.642;2023-04-08T08:16:20;95648.50;;;6.82;73.24
26978;BME280;56314;48.088;11.642;2023-04-08T08:18:45;95647.75;;;6.80;73.53
26978;BME280;56314;48.088;11.642;2023-04-08T08:21:10;95648.56;;;6.81;70.97
26978;BME280;56314;48.088;11.642;2023-04-08T08:23:36;95651.38;;;6.77;69.53
26978;BME280;56314;48.088;11.642;2023-04-08T08:26:07;95661.13;;;6.74;70.58
26978;BME280;56314;48.088;11.642;2023-04-08T08:28:36;95659.72;;;6.68;72.16
26978;BME280;56314;48.088;11.642;2023-04-08T08:31:01;95662.03;;;6.58;71.24
26978;BME280;56314;48.088;11.642;2023-04-08T08:33:28;95664.75;;;6.41;71.59
26978;BME280;56314;48.088;11.642;2023-04-08T08:35:53;95665.28;;;6.31;71.90
26978;BME280;56314;48.088;11.642;2023-04-08T08:38:19;95672.50;;;6.26;73.72
26978;BME280;56314;48.088;11.642;2023-04-08T08:40:44;95666.06;;;6.18;74.50
26978;BME280;56314;48.088;11.642;2023-04-08T08:43:10;95671.75;;;6.08;75.63
26978;BME280;56314;48.088;11.642;2023-04-08T08:45:39;95680.69;;;6.04;74.41
26978;BME280;56314;48.088;11.642;2023-04-08T08:48:06;95671.72;;;5.92;75.51
26978;BME280;56314;48.088;11.642;2023-04-08T08:50:33;95673.56;;;5.90;77.84
26978;BME280;56314;48.088;11.642;2023-04-08T08:52:58;95681.22;;;5.93;79.18
26978;BME280;56314;48.088;11.642;2023-04-08T08:55:24;95687.09;;;5.81;79.45
26978;BME280;56314;48.088;11.642;2023-04-08T08:57:49;95684.31;;;5.84;81.64
26978;BME280;56314;48.088;11.642;2023-04-08T09:00:15;95681.88;;;5.81;79.69
26978;BME280;56314;48.088;11.642;2023-04-08T09:02:41;95691.53;;;5.79;79.03
26978;BME280;56314;48.088;11.642;2023-04-08T09:05:06;95685.34;;;5.81;80.28
26978;BME280;56314;48.088;11.642;2023-04-08T09:07:35;95692.31;;;5.81;79.99
26978;BME280;56314;48.088;11.642;2023-04-08T09:10:01;95692.81;;;5.88;79.82
26978;BME280;56314;48.088;11.642;2023-04-08T09:12:27;95686.16;;;5.99;79.32
26978;BME280;56314;48.088;11.642;2023-04-08T09:15:03;95688.75;;;5.99;81.79
26978;BME280;56314;48.088;11.642;2023-04-08T09:17:37;95692.84;;;6.04;82.26
26978;BME280;56314;48.088;11.642;2023-04-08T09:20:04;95690.09;;;6.07;82.82
26978;BME280;56314;48.088;11.642;2023-04-08T09:22:34;95692.84;;;6.04;79.62
26978;BME280;56314;48.088;11.642;2023-04-08T09:24:59;95694.53;;;6.05;80.30
26978;BME280;56314;48.088;11.642;2023-04-08T09:27:34;95696.84;;;6.11;81.58
26978;BME280;56314;48.088;11.642;2023-04-08T09:30:15;95688.41;;;6.22;82.18
26978;BME280;56314;48.088;11.642;2023-04-08T09:32:51;95697.41;;;6.16;79.56
26978;BME280;56314;48.088;11.642;2023-04-08T09:35:18;95695.91;;;6.12;80.22
26978;BME280;56314;48.088;11.642;2023-04-08T09:37:43;95704.72;;;6.09;80.27
26978;BME280;56314;48.088;11.642;2023-04-08T09:40:09;95702.09;;;6.09;79.75
26978;BME280;56314;48.088;11.642;2023-04-08T09:42:42;95701.44;;;6.06;80.03
26978;BME280;56314;48.088;11.642;2023-04-08T09:45:09;95710.19;;;6.05;80.15
26978;BME280;56314;48.088;11.642;2023-04-08T09:47:47;95707.13;;;5.96;77.96
26978;BME280;56314;48.088;11.642;2023-04-08T09:50:19;95700.69;;;6.04;77.62
26978;BME280;56314;48.088;11.642;2023-04-08T09:52:47;95706.34;;;6.12;78.50
26978;BME280;56314;48.088;11.642;2023-04-08T09:55:21;95696.56;;;6.15;79.67
26978;BME280;56314;48.088;11.642;2023-04-08T10:00:22;95702.38;;;6.21;78.15
26978;BME280;56314;48.088;11.642;2023-04-08T10:05:45;95705.00;;;6.37;75.83
26978;BME280;56314;48.088;11.642;2023-04-08T10:08:11;95702.19;;;6.40;76.96
26978;BME280;56314;48.088;11.642;2023-04-08T10:10:38;95699.41;;;6.43;75.51
26978;BME280;56314;48.088;11.642;2023-04-08T10:13:05;95705.22;;;6.64;74.35
26978;BME280;56314;48.088;11.642;2023-04-08T10:15:33;95699.56;;;6.72;73.58
26978;BME280;56314;48.088;11.642;2023-04-08T10:23:07;95695.38;;;7.14;71.78
26978;BME280;56314;48.088;11.642;2023-04-08T10:25:34;95689.19;;;7.46;68.17
26978;BME280;56314;48.088;11.642;2023-04-08T10:28:00;95690.66;;;7.79;69.08
26978;BME280;56314;48.088;11.642;2023-04-08T10:32:53;95682.94;;;8.34;65.46
26978;BME280;56314;48.088;11.642;2023-04-08T10:35:37;95681.25;;;8.32;65.16
26978;BME280;56314;48.088;11.642;2023-04-08T10:38:06;95685.91;;;8.42;65.04
26978;BME280;56314;48.088;11.642;2023-04-08T10:40:36;95682.72;;;8.51;66.73
26978;BME280;56314;48.088;11.642;2023-04-08T10:43:03;95683.91;;;8.60;67.31
26978;BME280;56314;48.088;11.642;2023-04-08T10:45:29;95680.03;;;8.53;65.67
26978;BME280;56314;48.088;11.642;2023-04-08T10:47:55;95674.50;;;8.43;63.59
26978;BME280;56314;48.088;11.642;2023-04-08T10:50:20;95678.63;;;8.32;64.63
26978;BME280;56314;48.088;11.642;2023-04-08T10:52:53;95677.25;;;8.27;64.53
26978;BME280;56314;48.088;11.642;2023-04-08T10:55:25;95680.81;;;8.26;66.35
26978;BME280;56314;48.088;11.642;2023-04-08T10:57:53;95677.00;;;8.17;64.15
26978;BME280;56314;48.088;11.642;2023-04-08T11:00:39;95675.22;;;8.18;65.16
26978;BME280;56314;48.088;11.642;2023-04-08T11:03:07;95676.00;;;8.05;64.91
26978;BME280;56314;48.088;11.642;2023-04-08T11:05:33;95683.28;;;8.00;65.56
26978;BME280;56314;48.088;11.642;2023-04-08T11:07:59;95679.38;;;7.78;65.93
26978;BME280;56314;48.088;11.642;2023-04-08T11:10:27;95687.03;;;7.67;67.19
26978;BME280;56314;48.088;11.642;2023-04-08T11:12:53;95686.75;;;7.72;68.76
26978;BME280;56314;48.088;11.642;2023-04-08T11:15:20;95687.69;;;7.70;68.05
26978;BME280;56314;48.088;11.642;2023-04-08T11:17:46;95687.63;;;7.58;67.15
26978;BME280;56314;48.088;11.642;2023-04-08T11:20:12;95693.00;;;7.40;67.65
26978;BME280;56314;48.088;11.642;2023-04-08T11:22:38;95686.06;;;7.24;68.50
26978;BME280;56314;48.088;11.642;2023-04-08T11:25:05;95689.13;;;7.17;70.83
26978;BME280;56314;48.088;11.642;2023-04-08T11:27:33;95684.63;;;7.04;70.62
26978;BME280;56314;48.088;11.642;2023-04-08T11:30:02;95690.06;;;7.16;71.96
26978;BME280;56314;48.088;11.642;2023-04-08T11:32:29;95696.41;;;7.12;70.17
26978;BME280;56314;48.088;11.642;2023-04-08T11:34:55;95692.00;;;7.12;71.11
26978;BME280;56314;48.088;11.642;2023-04-08T11:37:20;95685.91;;;6.97;72.13
26978;BME280;56314;48.088;11.642;2023-04-08T11:39:49;95691.72;;;7.02;73.27
26978;BME280;56314;48.088;11.642;2023-04-08T11:42:28;95693.69;;;6.83;74.71
26978;BME280;56314;48.088;11.642;2023-04-08T11:44:53;95691.59;;;6.89;73.98
26978;BME280;56314;48.088;11.642;2023-04-08T11:47:19;95694.47;;;6.85;73.23
26978;BME280;56314;48.088;11.642;2023-04-08T11:49:45;95697.69;;;6.74;76.42
26978;BME280;56314;48.088;11.642;2023-04-08T11:52:11;95693.44;;;6.87;76.73
26978;BME280;56314;48.088;11.642;2023-04-08T11:54:40;95699.56;;;6.72;76.47
26978;BME280;56314;48.088;11.642;2023-04-08T11:57:06;95698.13;;;6.66;78.05
26978;BME280;56314;48.088;11.642;2023-04-08T11:59:34;95704.88;;;6.54;79.01
26978;BME280;56314;48.088;11.642;2023-04-08T12:01:59;95703.72;;;6.44;78.25
26978;BME280;56314;48.088;11.642;2023-04-08T12:04:26;95705.50;;;6.43;79.06
26978;BME280;56314;48.088;11.642;2023-04-08T12:06:51;95707.66;;;6.35;80.82
26978;BME280;56314;48.088;11.642;2023-04-08T12:09:17;95707.00;;;6.31;80.88
26978;BME280;56314;48.088;11.642;2023-04-08T12:11:42;95716.16;;;6.23;81.10
26978;BME280;56314;48.088;11.642;2023-04-08T12:14:08;95712.28;;;6.14;80.98
26978;BME280;56314;48.088;11.642;2023-04-08T12:16:33;95719.44;;;6.26;79.86
26978;BME280;56314;48.088;11.642;2023-04-08T12:18:59;95712.13;;;6.17;79.73
26978;BME280;56314;48.088;11.642;2023-04-08T12:21:24;95719.94;;;6.17;78.90
26978;BME280;56314;48.088;11.642;2023-04-08T12:23:49;95718.09;;;6.19;77.65
26978;BME280;56314;48.088;11.642;2023-04-08T12:26:16;95727.09;;;6.13;78.81
26978;BME280;56314;48.088;11.642;2023-04-08T12:28:41;95729.88;;;6.10;78.16
26978;BME280;56314;48.088;11.642;2023-04-08T12:31:06;95723.56;;;6.14;78.40
26978;BME280;56314;48.088;11.642;2023-04-08T12:33:32;95725.31;;;6.14;76.97
26978;BME280;56314;48.088;11.642;2023-04-08T12:35:57;95723.06;;;6.08;76.54
26978;BME280;56314;48.088;11.642;2023-04-08T12:38:24;95727.00;;;6.15;76.86
26978;BME280;56314;48.088;11.642;2023-04-08T12:40:49;95733.50;;;6.08;77.36
26978;BME280;56314;48.088;11.642;2023-04-08T12:43:15;95731.03;;;6.05;75.52
26978;BME280;56314;48.088;11.642;2023-04-08T12:45:40;95733.34;;;5.93;76.20
26978;BME280;56314;48.088;11.642;2023-04-08T12:48:06;95730.38;;;6.01;77.21
26978;BME280;56314;48.088;11.642;2023-04-08T12:50:31;95730.91;;;5.90;78.42
26978;BME280;56314;48.088;11.642;2023-04-08T12:52:57;95732.59;;;5.91;77.89
26978;BME280;56314;48.088;11.642;2023-04-08T12:55:22;95735.69;;;5.99;78.29
26978;BME280;56314;48.088;11.642;2023-04-08T12:57:50;95728.59;;;6.01;77.57
26978;BME280;56314;48.088;11.642;2023-04-08T13:00:16;95735.69;;;5.99;77.86
26978;BME280;56314;48.088;11.642;2023-04-08T13:02:41;95736.56;;;5.98;78.02
26978;BME280;56314;48.088;11.642;2023-04-08T13:05:08;95736.56;;;5.98;78.14
26978;BME280;56314;48.088;11.642;2023-04-08T13:07:34;95738.72;;;6.08;78.78
26978;BME280;56314;48.088;11.642;2023-04-08T13:09:59;95743.78;;;5.93;79.31
26978;BME280;56314;48.088;11.642;2023-04-08T13:12:25;95741.75;;;5.82;78.21
26978;BME280;56314;48.088;11.642;2023-04-08T13:14:51;95740.63;;;5.70;80.32
26978;BME280;56314;48.088;11.642;2023-04-08T13:17:17;95738.25;;;5.66;81.26